Disclaimer

Please do not use the information listed here in-flight or in-navigation, as they are not provided to us by the airports but are provided by volunteers, so they might be outdated.

Search


Regions


Airport information page

Radio informations:
KANO TWR - 118.1 MHz
Automatic Terminal Information Service (ATIS) - 123.6 MHz
KANO APP - 124.1 MHz

Airport informations:
Latitude: 12° 02' 51.32" N
Longitude: 008° 31' 28.64" E
Elevation: 1562 feet - 476 meters
Operating hours: N/A
Operating agency: Military-civil joint use airport
Timezone: UTC+1
Fuel: N/A

Runway information:
05/23 - 8040 x 148 feet< - >2451 x 45 meters
06/24 - 10831 x 197 feet< - >3301 x 60 meters

Recent METARs:
DNKN 160200Z VRB01KT 8000 NSC 15/06 Q1018 NOSIG
DNKN 160200Z VRB01KT 8000 NSC 15/06 Q1018 NOSIG
DNKN 160300Z VRB02KT 8000 NSC 13/07 Q1018 NOSIG

Airport on the map: